createdAt,value
2022-11-26T00:01:19.542Z,33.95
2022-11-26T00:03:47.299Z,31.67
2022-11-26T00:06:34.064Z,34.55
2022-11-26T00:09:01.998Z,30.85
2022-11-26T00:11:29.390Z,28.10
2022-11-26T00:13:56.413Z,30.10
2022-11-26T00:16:23.811Z,30.38
2022-11-26T00:18:50.907Z,28.52
2022-11-26T00:21:22.489Z,29.02
2022-11-26T00:23:50.249Z,30.50
2022-11-26T00:26:23.007Z,34.20
2022-11-26T00:28:56.209Z,31.70
2022-11-26T00:31:24.431Z,30.42
2022-11-26T00:33:51.648Z,29.08
2022-11-26T00:36:26.007Z,28.52
2022-11-26T00:39:15.726Z,31.00
2022-11-26T00:41:47.283Z,31.33
2022-11-26T00:44:23.183Z,26.27
2022-11-26T00:46:51.199Z,29.40
2022-11-26T00:49:19.017Z,28.80
2022-11-26T00:51:46.924Z,28.73
2022-11-26T00:54:17.309Z,26.38
2022-11-26T00:56:44.748Z,26.42
2022-11-26T00:59:14.919Z,30.42
2022-11-26T01:04:09.538Z,29.83
2022-11-26T01:06:41.982Z,28.23
2022-11-26T01:09:17.554Z,26.95
2022-11-26T01:11:46.437Z,26.45
2022-11-26T01:14:18.798Z,30.05
2022-11-26T01:16:47.697Z,30.40
2022-11-26T01:19:16.621Z,28.50
2022-11-26T01:21:43.797Z,27.90
2022-11-26T01:24:11.080Z,29.45
2022-11-26T01:26:43.087Z,29.20
2022-11-26T01:29:18.008Z,30.42
2022-11-26T01:31:45.313Z,32.25
2022-11-26T01:34:12.803Z,29.35
2022-11-26T01:36:41.196Z,29.13
2022-11-26T01:39:22.790Z,29.02
2022-11-26T01:42:06.370Z,30.77
2022-11-26T01:44:36.988Z,32.65
2022-11-26T01:47:22.153Z,29.40
2022-11-26T01:50:26.880Z,29.95
2022-11-26T01:52:58.859Z,29.75
2022-11-26T01:55:40.196Z,27.75
2022-11-26T01:58:10.681Z,30.15
2022-11-26T02:00:37.760Z,30.00
2022-11-26T02:03:05.926Z,26.70
2022-11-26T02:05:42.821Z,27.50
2022-11-26T02:08:12.041Z,26.20
2022-11-26T02:10:39.210Z,26.17
2022-11-26T02:13:06.545Z,26.67
2022-11-26T02:15:46.682Z,25.52
2022-11-26T02:20:47.009Z,25.25
2022-11-26T02:23:29.070Z,27.73
2022-11-26T02:26:19.232Z,26.38
2022-11-26T02:31:20.824Z,25.45
2022-11-26T02:34:10.622Z,25.70
2022-11-26T02:36:47.262Z,24.40
2022-11-26T02:39:19.684Z,24.98
2022-11-26T02:41:49.727Z,27.30
2022-11-26T02:44:20.514Z,25.05
2022-11-26T02:46:51.982Z,26.17
2022-11-26T02:49:22.561Z,26.70
2022-11-26T02:51:54.394Z,27.98
2022-11-26T02:54:24.281Z,27.85
2022-11-26T02:56:52.877Z,27.23
2022-11-26T02:59:20.430Z,28.40
2022-11-26T03:01:57.954Z,27.63
2022-11-26T03:04:30.934Z,30.40
2022-11-26T03:07:02.441Z,28.13
2022-11-26T03:09:42.355Z,30.05
2022-11-26T03:12:09.632Z,30.13
2022-11-26T03:14:37.038Z,30.52
2022-11-26T03:17:04.351Z,30.98
2022-11-26T03:19:31.473Z,29.98
2022-11-26T03:21:58.598Z,30.08
2022-11-26T03:24:25.719Z,30.13
2022-11-26T03:26:52.981Z,32.55
2022-11-26T03:29:20.151Z,28.45
2022-11-26T03:31:47.355Z,29.48
2022-11-26T03:34:14.551Z,29.75
2022-11-26T03:36:41.709Z,30.52
2022-11-26T03:39:08.983Z,29.98
2022-11-26T03:41:36.103Z,31.92
2022-11-26T03:44:03.256Z,29.08
2022-11-26T03:46:30.472Z,30.35
2022-11-26T03:48:57.531Z,30.88
2022-11-26T03:51:24.711Z,30.65
2022-11-26T03:53:51.815Z,31.65
2022-11-26T03:56:19.023Z,33.15
2022-11-26T03:58:46.147Z,33.53
2022-11-26T04:01:13.868Z,33.70
2022-11-26T04:03:41.379Z,33.10
2022-11-26T04:06:08.862Z,33.97
2022-11-26T04:08:36.072Z,34.58
2022-11-26T04:11:03.227Z,34.08
2022-11-26T04:13:30.516Z,35.50
2022-11-26T04:15:57.592Z,34.22
2022-11-26T04:18:24.637Z,35.25
2022-11-26T04:20:53.466Z,34.65
2022-11-26T04:23:20.994Z,34.20
2022-11-26T04:25:48.157Z,33.53
2022-11-26T04:28:15.465Z,33.38
2022-11-26T04:30:43.832Z,35.00
2022-11-26T04:33:11.303Z,32.67
2022-11-26T04:35:38.885Z,34.78
2022-11-26T04:38:06.223Z,36.25
2022-11-26T04:40:33.477Z,35.42
2022-11-26T04:43:00.632Z,33.47
2022-11-26T04:45:27.853Z,32.95
2022-11-26T04:47:54.984Z,31.88
2022-11-26T04:50:22.120Z,30.23
2022-11-26T04:52:49.622Z,32.92
2022-11-26T04:55:18.032Z,32.17
2022-11-26T04:57:48.865Z,32.50
2022-11-26T05:00:18.047Z,31.95
2022-11-26T05:02:45.818Z,33.10
2022-11-26T05:05:13.639Z,32.80
2022-11-26T05:07:41.037Z,31.42
2022-11-26T05:10:09.043Z,31.70
2022-11-26T05:12:36.992Z,30.58
2022-11-26T05:15:05.592Z,33.00
2022-11-26T05:17:33.395Z,31.38
2022-11-26T05:20:00.463Z,32.40
2022-11-26T05:22:27.836Z,31.17
2022-11-26T05:24:54.952Z,31.02
2022-11-26T05:27:22.144Z,32.22
2022-11-26T05:29:49.340Z,29.98
2022-11-26T05:32:16.547Z,31.02
2022-11-26T05:34:43.666Z,30.58
2022-11-26T05:37:10.955Z,30.30
2022-11-26T05:39:38.267Z,30.33
2022-11-26T05:42:09.349Z,30.02
2022-11-26T05:44:37.814Z,31.10
2022-11-26T05:47:05.227Z,31.10
2022-11-26T05:49:32.916Z,31.10
2022-11-26T05:52:00.385Z,31.38
2022-11-26T05:54:27.493Z,32.30
2022-11-26T05:56:59.875Z,33.88
2022-11-26T05:59:28.352Z,32.47
2022-11-26T06:01:55.560Z,30.48
2022-11-26T06:04:23.345Z,31.52
2022-11-26T06:06:50.512Z,32.25
2022-11-26T06:09:17.663Z,31.95
2022-11-26T06:11:44.871Z,31.48
2022-11-26T06:14:11.983Z,33.72
2022-11-26T06:16:39.120Z,30.17
2022-11-26T06:19:06.221Z,33.45
2022-11-26T06:21:33.514Z,31.58
2022-11-26T06:24:00.672Z,32.15
2022-11-26T06:26:27.863Z,35.67
2022-11-26T06:28:55.005Z,33.22
2022-11-26T06:31:22.417Z,33.85
2022-11-26T06:33:54.511Z,33.92
2022-11-26T06:36:22.475Z,33.92
2022-11-26T06:38:49.908Z,32.55
2022-11-26T06:41:17.102Z,35.28
2022-11-26T06:43:44.385Z,32.33
2022-11-26T06:46:12.173Z,33.15
2022-11-26T06:48:40.422Z,33.35
2022-11-26T06:51:13.274Z,36.72
2022-11-26T06:53:41.087Z,35.30
2022-11-26T06:56:17.807Z,32.63
2022-11-26T06:58:46.918Z,32.60
2022-11-26T07:01:20.096Z,34.83
2022-11-26T07:03:47.983Z,35.42
2022-11-26T07:06:27.583Z,34.58
2022-11-26T07:08:57.166Z,34.17
2022-11-26T07:11:25.672Z,31.83
2022-11-26T07:13:53.105Z,33.25
2022-11-26T07:16:21.024Z,35.83
2022-11-26T07:18:50.593Z,33.13
2022-11-26T07:21:18.911Z,30.85
2022-11-26T07:23:46.465Z,32.00
2022-11-26T07:26:15.585Z,32.08
2022-11-26T07:28:43.304Z,30.70
2022-11-26T07:31:16.409Z,31.13
2022-11-26T07:33:45.872Z,31.83
2022-11-26T07:36:17.685Z,30.17
2022-11-26T07:38:45.544Z,30.08
2022-11-26T07:41:16.350Z,31.20
2022-11-26T07:43:44.592Z,30.33
2022-11-26T07:46:15.103Z,31.33
2022-11-26T07:48:43.710Z,31.83
2022-11-26T07:51:29.905Z,28.88
2022-11-26T07:53:59.004Z,30.60
2022-11-26T07:56:26.631Z,30.30
2022-11-26T07:58:53.741Z,30.17
2022-11-26T08:01:23.296Z,29.98
2022-11-26T08:03:51.432Z,33.03
2022-11-26T08:06:22.035Z,30.10
2022-11-26T08:08:49.687Z,29.17
2022-11-26T08:11:22.795Z,31.40
2022-11-26T08:13:53.947Z,31.88
2022-11-26T08:16:21.320Z,31.40
2022-11-26T08:18:49.051Z,31.25
2022-11-26T08:21:16.237Z,30.38
2022-11-26T08:23:43.420Z,30.90
2022-11-26T08:26:23.877Z,30.55
2022-11-26T08:28:55.676Z,33.67
2022-11-26T08:31:25.061Z,32.58
2022-11-26T08:33:52.488Z,34.85
2022-11-26T08:36:19.743Z,34.67
2022-11-26T08:38:46.901Z,34.00
2022-11-26T08:41:14.613Z,33.55
2022-11-26T08:46:29.388Z,31.83
2022-11-26T08:48:57.511Z,36.30
2022-11-26T08:51:25.675Z,33.05
2022-11-26T08:53:53.373Z,37.17
2022-11-26T08:56:20.706Z,31.70
2022-11-26T08:58:49.253Z,39.00
2022-11-26T09:01:19.571Z,30.50
2022-11-26T09:03:51.316Z,35.70
2022-11-26T09:06:19.480Z,30.70
2022-11-26T09:09:06.054Z,30.83
2022-11-26T09:11:35.757Z,30.73
2022-11-26T09:14:03.344Z,48.95
2022-11-26T09:16:31.036Z,33.97
2022-11-26T09:19:01.336Z,29.02
2022-11-26T09:23:56.190Z,29.23
2022-11-26T09:26:24.594Z,29.60
2022-11-26T09:28:52.461Z,29.33
2022-11-26T09:31:20.139Z,31.65
2022-11-26T09:33:47.429Z,30.23
2022-11-26T09:36:16.048Z,30.63
2022-11-26T09:38:43.778Z,32.08
2022-11-26T09:41:41.589Z,28.23
2022-11-26T09:44:23.511Z,27.25
2022-11-26T09:47:15.082Z,27.55
2022-11-26T09:50:17.552Z,28.33
2022-11-26T09:53:03.774Z,26.38
2022-11-26T09:55:33.648Z,31.63
2022-11-26T09:58:27.061Z,28.80
2022-11-26T10:00:57.889Z,27.30
2022-11-26T10:03:36.815Z,27.70
2022-11-26T10:06:24.219Z,27.73
2022-11-26T10:09:12.953Z,27.27
2022-11-26T10:12:01.905Z,27.45
2022-11-26T10:14:47.469Z,27.17
2022-11-26T10:17:42.823Z,27.02
2022-11-26T10:20:22.119Z,28.25
2022-11-26T10:23:12.442Z,27.40
2022-11-26T10:25:47.098Z,26.17
2022-11-26T10:28:32.143Z,24.85
2022-11-26T10:31:05.775Z,24.77
2022-11-26T10:33:44.071Z,24.77
2022-11-26T10:36:27.402Z,26.25
2022-11-26T10:38:56.759Z,25.13
2022-11-26T10:41:30.075Z,26.67
2022-11-26T10:44:17.791Z,26.23
2022-11-26T10:46:44.987Z,26.20
2022-11-26T10:49:32.761Z,25.92
2022-11-26T10:52:04.393Z,24.42
2022-11-26T10:54:35.460Z,26.58
2022-11-26T10:57:32.132Z,26.02
2022-11-26T10:59:59.707Z,26.00
2022-11-26T11:02:31.504Z,26.10
2022-11-26T11:05:03.080Z,25.80
2022-11-26T11:07:38.861Z,23.98
2022-11-26T11:10:08.747Z,24.92
2022-11-26T11:12:42.615Z,24.42
2022-11-26T11:15:25.310Z,23.90
2022-11-26T11:18:02.393Z,23.33
2022-11-26T11:20:51.342Z,23.95
2022-11-26T11:23:45.810Z,24.60
2022-11-26T11:26:23.894Z,25.40
2022-11-26T11:28:55.752Z,24.40
2022-11-26T11:31:27.374Z,26.20
2022-11-26T11:34:13.952Z,25.60
2022-11-26T11:36:41.101Z,26.00
2022-11-26T11:39:28.132Z,29.85
2022-11-26T11:41:55.437Z,28.42
2022-11-26T11:44:49.442Z,30.75
2022-11-26T11:47:43.267Z,29.77
2022-11-26T11:50:17.510Z,32.42
2022-11-26T11:53:10.789Z,29.95
2022-11-26T11:56:02.113Z,32.45
2022-11-26T11:58:54.345Z,35.10
2022-11-26T12:01:30.552Z,34.25
2022-11-26T12:04:16.440Z,36.95
2022-11-26T12:07:40.815Z,38.35
2022-11-26T12:10:21.201Z,36.75
2022-11-26T12:12:52.766Z,36.13
2022-11-26T12:15:25.248Z,38.10
2022-11-26T12:18:13.393Z,35.85
2022-11-26T12:20:48.069Z,37.42
2022-11-26T12:23:22.835Z,35.15
2022-11-26T12:26:13.147Z,35.75
2022-11-26T12:28:58.871Z,35.70
2022-11-26T12:31:38.173Z,34.88
2022-11-26T12:34:08.918Z,37.10
2022-11-26T12:37:16.853Z,38.70
2022-11-26T12:40:00.409Z,37.90
2022-11-26T12:42:42.338Z,36.47
2022-11-26T12:45:22.112Z,39.03
2022-11-26T12:48:29.741Z,39.20
2022-11-26T12:51:12.747Z,39.35
2022-11-26T12:53:42.972Z,43.17
2022-11-26T12:58:43.958Z,42.88
2022-11-26T13:01:12.440Z,43.17
2022-11-26T13:03:41.621Z,42.72
2022-11-26T13:06:34.913Z,46.50
2022-11-26T13:09:16.216Z,44.22
2022-11-26T13:12:16.007Z,45.00
2022-11-26T13:14:59.211Z,43.65
2022-11-26T13:17:48.124Z,46.20
2022-11-26T13:20:59.815Z,45.58
2022-11-26T13:24:01.796Z,44.05
2022-11-26T13:27:15.506Z,46.38
2022-11-26T13:30:08.274Z,50.17
2022-11-26T13:32:48.153Z,47.30
2022-11-26T13:35:23.802Z,48.20
2022-11-26T13:38:09.272Z,46.60
2022-11-26T13:41:08.228Z,45.38
2022-11-26T13:44:16.624Z,47.35
2022-11-26T13:46:55.193Z,45.42
2022-11-26T13:49:51.222Z,44.78
2022-11-26T13:52:49.028Z,51.35
2022-11-26T13:55:39.629Z,44.90
2022-11-26T13:58:17.116Z,43.35
2022-11-26T14:00:44.646Z,45.97
2022-11-26T14:03:50.782Z,45.38
2022-11-26T14:06:18.079Z,45.30
2022-11-26T14:08:47.401Z,44.60
2022-11-26T14:11:45.357Z,44.97
2022-11-26T14:14:24.844Z,45.20
2022-11-26T14:17:01.336Z,50.05
2022-11-26T14:19:40.975Z,44.08
2022-11-26T14:22:23.029Z,45.08
2022-11-26T14:24:53.017Z,46.20
2022-11-26T14:27:22.508Z,43.85
2022-11-26T14:30:08.635Z,49.40
2022-11-26T14:32:51.903Z,48.30
2022-11-26T14:35:34.431Z,49.20
2022-11-26T14:38:05.991Z,47.08
2022-11-26T14:40:37.150Z,48.30
2022-11-26T14:43:20.785Z,47.13
2022-11-26T14:46:00.884Z,44.88
2022-11-26T14:48:30.141Z,47.03
2022-11-26T14:51:00.790Z,49.07
2022-11-26T14:53:34.173Z,47.30
2022-11-26T14:56:03.214Z,45.97
2022-11-26T14:58:36.735Z,45.00
2022-11-26T15:01:16.012Z,42.00
2022-11-26T15:03:53.261Z,42.40
2022-11-26T15:06:38.575Z,47.53
2022-11-26T15:09:16.670Z,44.20
2022-11-26T15:12:12.870Z,43.72
2022-11-26T15:14:56.043Z,43.38
2022-11-26T15:17:26.123Z,43.38
2022-11-26T15:19:55.504Z,46.33
2022-11-26T15:22:32.909Z,44.05
2022-11-26T15:25:00.348Z,43.22
2022-11-26T15:27:28.852Z,46.17
2022-11-26T15:29:56.041Z,43.15
2022-11-26T15:32:31.911Z,45.53
2022-11-26T15:35:03.712Z,41.33
2022-11-26T15:37:31.122Z,43.80
2022-11-26T15:40:24.391Z,47.00
2022-11-26T15:42:59.702Z,48.13
2022-11-26T15:45:47.341Z,45.53
2022-11-26T15:48:28.025Z,47.03
2022-11-26T15:51:00.365Z,40.55
2022-11-26T15:53:33.356Z,43.95
2022-11-26T15:56:02.149Z,41.25
2022-11-26T15:58:33.353Z,45.25
2022-11-26T16:01:03.062Z,42.83
2022-11-26T16:03:46.252Z,41.40
2022-11-26T16:06:32.272Z,41.70
2022-11-26T16:09:14.876Z,41.08
2022-11-26T16:11:58.082Z,40.22
2022-11-26T16:14:33.229Z,44.92
2022-11-26T16:17:08.384Z,40.85
2022-11-26T16:19:37.255Z,39.72
2022-11-26T16:22:06.283Z,35.60
2022-11-26T16:24:40.347Z,40.63
2022-11-26T16:27:22.346Z,39.67
2022-11-26T16:29:49.877Z,38.03
2022-11-26T16:32:18.487Z,36.35
2022-11-26T16:34:46.113Z,40.45
2022-11-26T16:37:28.944Z,40.47
2022-11-26T16:40:15.471Z,42.30
2022-11-26T16:42:42.760Z,42.13
2022-11-26T16:45:12.500Z,45.05
2022-11-26T16:47:49.812Z,43.40
2022-11-26T16:50:25.427Z,40.30
2022-11-26T16:52:54.103Z,43.53
2022-11-26T16:55:25.604Z,40.83
2022-11-26T16:57:56.657Z,41.85
2022-11-26T17:00:26.445Z,39.83
2022-11-26T17:02:54.189Z,42.67
2022-11-26T17:05:22.810Z,43.10
2022-11-26T17:07:54.234Z,40.53
2022-11-26T17:10:29.564Z,42.33
2022-11-26T17:12:57.775Z,42.28
2022-11-26T17:15:25.085Z,43.72
2022-11-26T17:17:54.871Z,40.55
2022-11-26T17:20:26.966Z,38.30
2022-11-26T17:22:54.321Z,43.78
2022-11-26T17:25:21.667Z,45.72
2022-11-26T17:27:49.123Z,41.47
2022-11-26T17:30:21.780Z,43.35
2022-11-26T17:32:49.201Z,44.63
2022-11-26T17:35:16.836Z,43.25
2022-11-26T17:37:44.270Z,40.50
2022-11-26T17:40:22.894Z,44.22
2022-11-26T17:42:50.639Z,46.90
2022-11-26T17:45:19.360Z,47.63
2022-11-26T17:47:47.007Z,45.58
2022-11-26T17:50:26.492Z,42.13
2022-11-26T17:52:55.062Z,43.08
2022-11-26T17:55:24.713Z,48.20
2022-11-26T17:57:52.390Z,47.10
2022-11-26T18:00:23.881Z,46.78
2022-11-26T18:02:52.373Z,44.58
2022-11-26T18:05:19.803Z,42.60
2022-11-26T18:07:47.274Z,46.10
2022-11-26T18:10:16.692Z,49.05
2022-11-26T18:12:45.022Z,49.10
2022-11-26T18:15:20.700Z,46.95
2022-11-26T18:17:51.147Z,46.10
2022-11-26T18:20:21.615Z,44.25
2022-11-26T18:22:54.004Z,46.05
2022-11-26T18:25:21.546Z,41.22
2022-11-26T18:27:48.995Z,42.97
2022-11-26T18:30:17.442Z,47.95
2022-11-26T18:32:44.752Z,40.30
2022-11-26T18:35:13.037Z,40.67
2022-11-26T18:37:41.049Z,42.13
2022-11-26T18:40:11.872Z,45.67
2022-11-26T18:42:39.172Z,39.70
2022-11-26T18:45:09.303Z,45.05
2022-11-26T18:47:36.721Z,50.50
2022-11-26T18:50:04.404Z,43.05
2022-11-26T18:52:31.789Z,49.33
2022-11-26T18:55:00.268Z,46.53
2022-11-26T18:57:28.035Z,40.28
2022-11-26T18:59:55.192Z,41.70
2022-11-26T19:02:22.527Z,42.58
2022-11-26T19:04:49.795Z,42.05
2022-11-26T19:07:17.193Z,39.97
2022-11-26T19:09:44.734Z,41.20
2022-11-26T19:12:13.132Z,42.45
2022-11-26T19:14:40.678Z,40.95
2022-11-26T19:17:08.695Z,41.15
2022-11-26T19:19:37.795Z,37.80
2022-11-26T19:22:05.355Z,43.42
2022-11-26T19:24:32.549Z,39.45
2022-11-26T19:26:59.924Z,39.75
2022-11-26T19:29:27.104Z,42.55
2022-11-26T19:31:54.392Z,46.42
2022-11-26T19:34:21.925Z,42.55
2022-11-26T19:36:49.336Z,44.80
2022-11-26T19:39:17.281Z,40.92
2022-11-26T19:41:44.685Z,42.35
2022-11-26T19:44:12.102Z,42.45
2022-11-26T19:46:41.548Z,42.72
2022-11-26T19:49:12.484Z,41.33
2022-11-26T19:51:40.574Z,44.05
2022-11-26T19:54:08.068Z,39.63
2022-11-26T19:56:35.773Z,44.67
2022-11-26T19:59:03.630Z,42.92
2022-11-26T20:01:33.209Z,39.65
2022-11-26T20:04:04.218Z,42.30
2022-11-26T20:06:32.826Z,39.03
2022-11-26T20:09:00.981Z,38.88
2022-11-26T20:11:29.139Z,41.67
2022-11-26T20:13:57.430Z,42.85
2022-11-26T20:16:27.293Z,41.47
2022-11-26T20:18:55.834Z,42.72
2022-11-26T20:21:26.352Z,38.35
2022-11-26T20:23:55.046Z,42.30
2022-11-26T20:26:31.203Z,46.97
2022-11-26T20:29:09.204Z,43.78
2022-11-26T20:31:44.852Z,40.75
2022-11-26T20:34:16.918Z,39.22
2022-11-26T20:36:45.033Z,43.63
2022-11-26T20:39:14.918Z,43.20
2022-11-26T20:41:42.468Z,42.00
2022-11-26T20:44:10.634Z,41.92
2022-11-26T20:46:38.017Z,40.70
2022-11-26T20:49:06.242Z,41.55
2022-11-26T20:51:34.127Z,41.47
2022-11-26T20:54:02.307Z,37.90
2022-11-26T20:56:29.632Z,41.47
2022-11-26T20:58:56.991Z,41.28
2022-11-26T21:01:28.990Z,40.50
2022-11-26T21:03:56.615Z,41.90
2022-11-26T21:06:29.686Z,44.88
2022-11-26T21:09:00.324Z,39.83
2022-11-26T21:11:27.509Z,40.15
2022-11-26T21:13:55.035Z,42.45
2022-11-26T21:16:23.575Z,39.47
2022-11-26T21:18:54.103Z,40.90
2022-11-26T21:21:22.094Z,39.83
2022-11-26T21:23:49.278Z,44.90
2022-11-26T21:26:18.971Z,47.42
2022-11-26T21:28:54.083Z,42.30
2022-11-26T21:31:22.379Z,45.65
2022-11-26T21:34:01.635Z,40.60
2022-11-26T21:36:30.793Z,44.00
2022-11-26T21:38:58.307Z,45.50
2022-11-26T21:41:25.917Z,44.88
2022-11-26T21:43:53.324Z,41.35
2022-11-26T21:46:23.800Z,44.53
2022-11-26T21:48:55.230Z,46.40
2022-11-26T21:51:24.389Z,45.65
2022-11-26T21:53:53.965Z,43.70
2022-11-26T21:56:23.697Z,41.55
2022-11-26T21:58:51.600Z,44.70
2022-11-26T22:01:21.637Z,45.75
2022-11-26T22:03:51.545Z,47.28
2022-11-26T22:06:20.350Z,40.35
2022-11-26T22:08:48.285Z,43.42
2022-11-26T22:11:17.106Z,44.38
2022-11-26T22:13:44.374Z,45.70
2022-11-26T22:16:13.969Z,49.40
2022-11-26T22:18:43.034Z,43.80
2022-11-26T22:21:16.425Z,46.53
2022-11-26T22:23:43.910Z,46.85
2022-11-26T22:26:11.245Z,49.17
2022-11-26T22:28:41.157Z,47.50
2022-11-26T22:31:27.238Z,48.53
2022-11-26T22:33:56.378Z,43.85
2022-11-26T22:36:24.163Z,40.60
2022-11-26T22:38:51.313Z,45.58
2022-11-26T22:41:18.990Z,45.08
2022-11-26T22:43:46.192Z,45.88
2022-11-26T22:46:16.303Z,48.30
2022-11-26T22:51:11.411Z,51.05
2022-11-26T22:53:38.685Z,48.70
2022-11-26T22:56:06.509Z,48.17
2022-11-26T22:58:35.203Z,45.75
2022-11-26T23:01:06.078Z,45.55
2022-11-26T23:03:35.528Z,48.05
2022-11-26T23:06:08.644Z,48.05
2022-11-26T23:08:36.493Z,43.38
2022-11-26T23:11:35.052Z,49.00
2022-11-26T23:14:05.030Z,46.45
2022-11-26T23:16:32.303Z,47.85
2022-11-26T23:18:59.939Z,43.15
2022-11-26T23:21:36.034Z,51.85
2022-11-26T23:24:03.101Z,52.45
2022-11-26T23:26:32.896Z,43.53
2022-11-26T23:29:02.123Z,52.67
2022-11-26T23:31:35.795Z,57.23
2022-11-26T23:34:04.212Z,49.88
2022-11-26T23:36:32.363Z,51.95
2022-11-26T23:39:01.697Z,54.15
2022-11-26T23:41:29.410Z,52.57
2022-11-26T23:43:56.872Z,49.17
2022-11-26T23:46:30.140Z,46.38
2022-11-26T23:48:57.585Z,48.22
2022-11-26T23:51:30.541Z,57.80
2022-11-26T23:53:58.169Z,50.95
2022-11-26T23:56:30.801Z,49.85
2022-11-26T23:59:01.813Z,54.17
